ザウジ・パマンジ空港の過去48時間の天気

ザウジ・パマンジ空港 (Dzaoudzi / Pamanzi Mayotte )

現在時刻: 12/8 10:32 EAT (12/8 07:32 UTC) 以下の時間は現地時間です。

過去48時間のMETAR気象情報
時間 風向 風速(m/s) 視程 気温(℃) 湿度(%) 気圧(hPa) 天気現象
8 10:00 不定 2 10km以上 31 66 1014
8 09:30 不定 1 10km以上 30 66 1014
8 09:00 不定 1 10km以上 29 74 1014
8 08:30 西北西 2 10km以上 28 79 1014
8 08:00 不定 1 10km以上 28 79 1013
8 07:30 南西 2 10km以上 27 84 1013
8 07:00 北西 2 10km以上 27 84 1013
8 06:30 西北西 2 10km以上 26 89 1013
8 06:00 西北西 2 10km以上 25 94 1013
8 05:30 北西 2 10km以上 24 94 1012
8 05:00 北北西 1 10km以上 25 94 1012
8 04:30 南南西 2 10km以上 25 94 1012
8 04:00 西 2 10km以上 25 94 1012
8 03:30 西北西 2 10km以上 25 94 1011
8 03:00 西 2 10km以上 25 94 1011
8 02:30 北北西 2 10km以上 25 94 1011
8 02:00 北西 2 10km以上 25 94 1011
8 01:30 北西 3 10km以上 26 89 1011
8 01:00 北北西 3 10km以上 26 89 1011
8 00:30 2 10km以上 26 89 1012
8 00:00 北北西 2 10km以上 26 89 1012
7 23:30 西北西 3 10km以上 26 89 1012
7 23:00 西 3 10km以上 26 89 1013
7 22:30 不定 1 10km以上 26 89 1013
7 22:00 西南西 2 10km以上 26 89 1013
7 21:30 西南西 3 10km以上 27 84 1012
7 21:00 北西 3 10km以上 27 84 1012
7 20:30 北北西 3 10km以上 27 84 1012
7 20:00 北西 3 10km以上 27 84 1012
7 19:30 北西 4 10km以上 27 84 1012
7 19:00 北西 5 10km以上 28 79 1011
7 18:30 北北西 5 10km以上 27 84 1011
7 18:00 北西 5 10km以上 28 79 1011
7 17:30 北西 5 10km以上 28 79 1011
7 17:00 北北西 5 10km以上 29 74 1011
7 16:30 北西 5 10km以上 28 79 1010
7 16:00 北北西 4 10km以上 29 74 1010
7 15:30 北北西 5 10km以上 29 74 1010
7 15:00 西北西 3 10km以上 29 74 1010
7 14:30 不定 1 10km以上 27 84 1011
7 14:00 北西 3 10km以上 25 89 1011
7 13:30 北西 2 10km以上 24 94 1011
7 13:00 2 10km以上 24 94 1012 弱い雨
7 12:30 西北西 4 2100m 24 89 1013 強い雷雨 もや
7 12:00 西北西 8 10km以上 27 84 1013
7 11:30 北北西 5 10km以上 30 70 1012
7 11:00 北北西 5 10km以上 30 70 1013
7 10:30 北北西 5 10km以上 30 70 1013
7 10:00 北北西 5 10km以上 29 74 1013
7 09:30 6 10km以上 30 70 1013
7 09:00 5 10km以上 29 74 1013
7 08:30 4 10km以上 28 79 1013
7 08:00 4 10km以上 28 79 1014
7 07:30 4 10km以上 28 79 1013
7 07:00 5 10km以上 28 79 1013
7 06:30 5 10km以上 27 84 1012
7 06:00 4 10km以上 27 84 1012
7 05:30 北北西 3 10km以上 27 84 1011
7 05:00 3 10km以上 27 79 1011
7 04:30 4 10km以上 27 79 1011
7 04:00 北北西 4 10km以上 27 79 1011
7 03:30 北北西 4 10km以上 27 84 1011
7 03:00 北北西 3 10km以上 26 89 1011
7 02:30 北北西 2 10km以上 26 89 1011
7 02:00 2 10km以上 26 84 1011
7 01:30 北西 4 10km以上 27 84 1011
7 01:00 北西 4 10km以上 27 84 1011
7 00:30 西北西 4 10km以上 27 84 1011
7 00:00 西北西 4 10km以上 27 84 1012
6 23:30 北西 3 10km以上 26 84 1012
6 23:00 北北西 2 10km以上 26 84 1012
6 22:30 1 10km以上 27 79 1012
6 22:00 2 10km以上 27 79 1012
6 21:30 北北東 2 10km以上 27 79 1012
6 21:00 北北東 2 10km以上 27 79 1012
6 20:30 2 10km以上 27 79 1012
6 20:00 不定 1 10km以上 27 79 1012
6 19:30 静穏 0 10km以上 27 79 1012
6 19:00 北東 1 10km以上 28 74 1012
6 18:30 不定 1 10km以上 28 74 1011
6 18:00 南東 1 10km以上 29 70 1011
6 17:30 南南東 2 10km以上 30 66 1011
6 17:00 不定 2 10km以上 31 62 1011
6 16:30 不定 1 10km以上 30 66 1011
6 16:00 不定 2 10km以上 30 66 1011
6 15:30 東北東 2 10km以上 30 66 1011
6 15:00 東北東 3 10km以上 30 66 1011
6 14:30 不定 2 10km以上 30 66 1011
6 14:00 北西 3 10km以上 31 62 1011
6 13:30 北北西 3 10km以上 31 62 1011
6 13:00 北東 3 10km以上 31 66 1012
6 12:30 東北東 4 10km以上 30 66 1012
6 12:00 不定 2 10km以上 29 74 1013
6 11:30 3 10km以上 30 70 1013
6 11:00 3 10km以上 29 70 1013
FMCZ 080700Z AUTO VRB03KT CAVOK 31/24 Q1014 TEMPO 4500 SHRA SCT020TCU
FMCZ 080630Z AUTO VRB02KT 9999 BKN039 BKN045 BKN056 30/23 Q1014 TEMPO 4500 SHRA SCT020TCU
FMCZ 080600Z AUTO VRB01KT 9999 FEW035 BKN054 29/24 Q1014 NOSIG
FMCZ 080530Z AUTO 29003KT 9999 FEW037 BKN044 BKN050 28/24 Q1014 TEMPO 4500 SHRA SCT020CB
FMCZ 080500Z AUTO VRB02KT 9999 FEW021/// SCT036/// ///CB 28/24 Q1013 TEMPO VRB15G25KT 1500 SHRA BECMG FEW030 SCT040
FMCZ 080430Z AUTO 23003KT 9999 SCT021/// BKN036/// BKN140/// ///CB 27/24 Q1013 TEMPO VRB15G25KT 1500 SHRA BECMG FEW030 SCT040
FMCZ 080400Z AUTO 31003KT 9999 FEW028 BKN130 27/24 Q1013 TEMPO VRB15G25KT 1500 SHRA SCT015CB
FMCZ 080330Z AUTO 30004KT CAVOK 26/24 Q1013 TEMPO VRB15G25KT 1500 SHRA SCT015CB
FMCZ 080300Z AUTO 29003KT CAVOK 25/24 Q1013 TEMPO VRB15G25KT 1500 SHRA SCT015CB
FMCZ 080230Z AUTO 31003KT 270V350 CAVOK 24/23 Q1012 TEMPO VRB15G25KT 1500 SHRA SCT015CB
FMCZ 080200Z AUTO 34002KT 9999 FEW029 25/24 Q1012 TEMPO VRB15G25KT 1500 SHRA SCT015CB
FMCZ 080130Z AUTO 21003KT 9999 FEW027 25/24 Q1012 TEMPO VRB15G25KT 1500 SHRA SCT015CB
FMCZ 080100Z AUTO 27003KT CAVOK 25/24 Q1012 TEMPO VRB15G25KT 1500 SHRA SCT015CB
FMCZ 080030Z AUTO 29004KT CAVOK 25/24 Q1011 TEMPO VRB15G25KT 1500 SHRA SCT015CB
FMCZ 080000Z AUTO 28003KT CAVOK 25/24 Q1011 TEMPO VRB15G25KT 1500 SHRA SCT015CB
FMCZ 072330Z AUTO 34004KT 300V360 CAVOK 25/24 Q1011 TEMPO VRB15G25KT 1500 SHRA SCT015CB
FMCZ 072300Z AUTO 32003KT CAVOK 25/24 Q1011 NOSIG
FMCZ 072230Z AUTO 31005KT 290V350 CAVOK 26/24 Q1011 NOSIG
FMCZ 072200Z AUTO 33005KT CAVOK 26/24 Q1011 NOSIG
FMCZ 072130Z AUTO 35004KT 320V020 CAVOK 26/24 Q1012 NOSIG
FMCZ 072100Z AUTO 33003KT 290V010 CAVOK 26/24 Q1012 NOSIG
FMCZ 072030Z AUTO 29005KT CAVOK 26/24 Q1012 NOSIG
FMCZ 072000Z AUTO 26005KT CAVOK 26/24 Q1013 NOSIG
FMCZ 071930Z AUTO VRB02KT CAVOK 26/24 Q1013 NOSIG
FMCZ 071900Z AUTO 24004KT CAVOK 26/24 Q1013 NOSIG
FMCZ 071830Z AUTO 25005KT CAVOK 27/24 Q1012 NOSIG
FMCZ 071800Z AUTO 31006KT CAVOK 27/24 Q1012 NOSIG
FMCZ 071730Z AUTO 33005KT 9999 FEW036 27/24 Q1012 NOSIG
FMCZ 071700Z AUTO 32006KT 300V360 9999 SCT037 27/24 Q1012 BECMG FEW020TCU
FMCZ 071630Z AUTO 32008KT 9999 FEW035 SCT042 BKN054 27/24 Q1012 BECMG FEW020TCU
FMCZ 071600Z AUTO 32009KT 9999 BKN035 OVC043 28/24 Q1011 BECMG FEW020TCU
FMCZ 071530Z AUTO 33009KT 9999 BKN034 BKN040 BKN064 27/24 Q1011 BECMG FEW020TCU
FMCZ 071500Z AUTO 32009KT 9999 SCT033 28/24 Q1011 BECMG FEW020TCU
FMCZ 071430Z AUTO 32009KT 9999 SCT031 28/24 Q1011 BECMG FEW020TCU
FMCZ 071400Z AUTO 33009KT 310V010 CAVOK 29/24 Q1011 BECMG FEW020TCU
FMCZ 071330Z AUTO 32009KT 9999 FEW040 BKN056 28/24 Q1010 BECMG FEW020TCU
FMCZ 071300Z AUTO 34008KT 310V010 9999 FEW020 BKN037 29/24 Q1010 BECMG FEW020TCU
FMCZ 071230Z AUTO 33009KT 9999 FEW022/// ///TCU 29/24 Q1010 NOSIG
FMCZ 071200Z AUTO 29005KT 260V320 9999 ///TCU 29/24 Q1010 NOSIG
FMCZ 071130Z AUTO VRB02KT 9999 ///TCU 27/24 Q1011 BECMG BKN020 BKN027
FMCZ 071100Z AUTO 32006KT 9999 ///TCU 25/23 Q1011 TEMPO 3000 SHRA BECMG BKN020 BKN027
FMCZ 071030Z AUTO 32004KT 9999 FEW014/// ///TCU 24/23 Q1011 TEMPO 3000 SHRA BECMG BKN020 BKN027
FMCZ 071000Z AUTO 01004KT 320V070 9999 -RA FEW033/// SCT060/// BKN072/// ///CB 24/23 Q1012 TEMPO 3000 SHRA
FMCZ 070930Z AUTO 30008KT 230V030 2100 +TSRA BR FEW009/// SCT017/// BKN029/// ///CB 24/22 Q1013 TEMPO 3000 SHRA
FMCZ 070900Z AUTO 29016KT 9999 2900 RA BKN021 BKN027 BKN032 27/24 Q1013 TEMPO 3000 SHRA FEW022TCU BECMG 01007KT
FMCZ 070830Z AUTO 33010KT 310V010 9999 BKN033/// BKN040/// BKN058/// ///CB 30/24 Q1012 TEMPO 3000 SHRA
FMCZ 070800Z AUTO 33010KT 9999 SCT025 BKN031 OVC038 30/24 Q1013 TEMPO 3000 SHRA FEW022TCU
FMCZ 070730Z AUTO 34010KT 300V020 9999 FEW022 SCT036 30/24 Q1013 TEMPO 3000 SHRA FEW022TCU
FMCZ 070700Z AUTO 34010KT 310V010 9999 BKN023 BKN028 29/24 Q1013 TEMPO 3000 SHRA FEW022TCU
FMCZ 070630Z AUTO 36011KT 310V030 9999 FEW022/// ///CB 30/24 Q1013 TEMPO 3000 SHRA BKN020 BKN027
FMCZ 070600Z AUTO 35010KT 320V020 9999 SCT021 29/24 Q1013 NOSIG
FMCZ 070530Z AUTO 35008KT 310V010 9999 FEW019 SCT031 28/24 Q1013 NOSIG
FMCZ 070500Z AUTO 01007KT 330V050 9999 BKN020 BKN027 28/24 Q1014 TEMPO 3000 SHRA
FMCZ 070430Z AUTO 36008KT 9999 SCT019 BKN024 28/24 Q1013 TEMPO 3000 SHRA
FMCZ 070400Z AUTO 01009KT 9999 FEW018 28/24 Q1013 TEMPO 3000 SHRA
FMCZ 070330Z AUTO 36009KT 330V030 9999 FEW020 SCT026 27/24 Q1012 TEMPO 3000 SHRA
FMCZ 070300Z AUTO 35007KT 320V020 9999 SCT018 SCT024 BKN032 27/24 Q1012 NOSIG
FMCZ 070230Z AUTO 34006KT 9999 FEW020 SCT029 27/24 Q1011 NOSIG
FMCZ 070200Z AUTO 35006KT 310V020 9999 BKN020 BKN025 BKN034 27/23 Q1011 NOSIG
FMCZ 070130Z AUTO 36007KT 320V020 9999 FEW018 27/23 Q1011 NOSIG
FMCZ 070100Z AUTO 34008KT 310V020 9999 FEW018 27/23 Q1011 NOSIG
FMCZ 070030Z AUTO 33008KT 9999 FEW019 27/24 Q1011 NOSIG
FMCZ 070000Z AUTO 33005KT CAVOK 26/24 Q1011 NOSIG
FMCZ 062330Z AUTO 34004KT CAVOK 26/24 Q1011 NOSIG
FMCZ 062300Z AUTO 01003KT 340V040 CAVOK 26/23 Q1011 NOSIG
FMCZ 062230Z AUTO 32007KT 310V010 CAVOK 27/24 Q1011 NOSIG
FMCZ 062200Z AUTO 32008KT CAVOK 27/24 Q1011 NOSIG
FMCZ 062130Z AUTO 30007KT CAVOK 27/24 Q1011 NOSIG
FMCZ 062100Z AUTO 30007KT CAVOK 27/24 Q1012 NOSIG
FMCZ 062030Z AUTO 31005KT CAVOK 26/23 Q1012 NOSIG
FMCZ 062000Z AUTO 34003KT CAVOK 26/23 Q1012 NOSIG
FMCZ 061930Z AUTO 01002KT CAVOK 27/23 Q1012 NOSIG
FMCZ 061900Z AUTO 01003KT CAVOK 27/23 Q1012 NOSIG
FMCZ 061830Z AUTO 02003KT CAVOK 27/23 Q1012 NOSIG
FMCZ 061800Z AUTO 03004KT 9999 FEW024 27/23 Q1012 NOSIG
FMCZ 061730Z AUTO 36003KT CAVOK 27/23 Q1012 NOSIG
FMCZ 061700Z AUTO VRB02KT CAVOK 27/23 Q1012 NOSIG
FMCZ 061630Z AUTO 00000KT CAVOK 27/23 Q1012 NOSIG
FMCZ 061600Z AUTO 05002KT CAVOK 28/23 Q1012 NOSIG
FMCZ 061530Z AUTO VRB01KT CAVOK 28/23 Q1011 NOSIG
FMCZ 061500Z AUTO 14001KT CAVOK 29/23 Q1011 NOSIG
FMCZ 061430Z AUTO 16003KT CAVOK 30/23 Q1011 NOSIG
FMCZ 061400Z AUTO VRB03KT CAVOK 31/23 Q1011 NOSIG
FMCZ 061330Z AUTO VRB02KT CAVOK 30/23 Q1011 NOSIG
FMCZ 061300Z AUTO VRB03KT 9999 SCT043 30/23 Q1011 NOSIG
FMCZ 061230Z AUTO 06004KT 010V090 9999 BKN041 30/23 Q1011 NOSIG
FMCZ 061200Z AUTO 07005KT 040V110 9999 BKN041 BKN048 30/23 Q1011 NOSIG
FMCZ 061130Z AUTO VRB03KT 9999 FEW025 BKN041 30/23 Q1011 NOSIG
FMCZ 061100Z AUTO 31005KT 9999 BKN026 OVC043 31/23 Q1011 NOSIG
FMCZ 061030Z AUTO 33006KT 240V050 9999 FEW028 BKN040 31/23 Q1011 NOSIG
FMCZ 061000Z AUTO 05006KT 010V100 9999 FEW028 SCT038 31/24 Q1012 NOSIG
FMCZ 060930Z AUTO 07007KT 9999 SCT028 OVC040 30/23 Q1012 NOSIG
FMCZ 060900Z AUTO VRB04KT 9999 BKN028 BKN035 29/24 Q1013 NOSIG
FMCZ 060830Z AUTO VRB05KT 9999 FEW025 30/24 Q1013 NOSIG
FMCZ 060800Z AUTO 36005KT 290V050 9999 BKN024 OVC031 29/23 Q1013 NOSIG